Time;durP1;ratioP1;P1;durP2;ratioP2;P2;SDS_P1;SDS_P2;PMS_P1;PMS_P2;Temp;Humidity;BMP_temperature;BMP_pressure;BME280_temperature;BME280_humidity;BME280_pressure;Samples;Min_cycle;Max_cycle;Signal;HPM_P1;HPM_P2
2023/12/31 00:00:14;;;;;;;12.48;5.45;;;;;;;0.74;65.99;92569.91;2061627;69;20149;-81
2023/12/31 00:02:40;;;;;;;14.40;5.00;;;;;;;0.85;65.48;92572.31;2058289;69;20165;-81
2023/12/31 00:05:06;;;;;;;10.95;5.15;;;;;;;0.84;65.63;92564.56;2058165;69;20179;-81
2023/12/31 00:07:33;;;;;;;10.65;4.53;;;;;;;0.74;65.90;92556.06;2058198;69;20169;-81
2023/12/31 00:09:59;;;;;;;10.18;5.10;;;;;;;0.70;66.43;92558.44;2061642;69;20255;-81
2023/12/31 00:12:24;;;;;;;12.45;6.13;;;;;;;0.35;67.28;92543.38;2061363;69;20197;-80
2023/12/31 00:14:50;;;;;;;14.13;5.90;;;;;;;0.51;67.56;92556.00;2061043;69;20145;-79
2023/12/31 00:17:16;;;;;;;14.40;5.90;;;;;;;0.70;66.99;92544.59;2057332;69;20494;-80
2023/12/31 00:19:41;;;;;;;11.98;5.55;;;;;;;0.63;66.95;92554.34;2057167;69;20133;-79
2023/12/31 00:22:08;;;;;;;10.75;4.97;;;;;;;0.71;66.20;92551.59;2061134;69;20160;-81
2023/12/31 00:24:34;;;;;;;11.07;5.00;;;;;;;0.70;66.77;92539.06;2057371;69;20150;-83
2023/12/31 00:26:59;;;;;;;10.50;5.13;;;;;;;0.66;66.63;92544.22;2062484;69;20165;-82
2023/12/31 00:29:31;;;;;;;14.00;5.30;;;;;;;0.63;67.11;92548.06;2060439;69;20143;-83
2023/12/31 00:32:04;;;;;;;10.55;4.50;;;;;;;0.37;66.62;92527.69;2060958;69;20611;-82
2023/12/31 00:34:41;;;;;;;14.38;5.28;;;;;;;0.52;66.58;92540.09;2060805;69;20651;-83
2023/12/31 00:37:13;;;;;;;11.80;4.85;;;;;;;0.64;67.17;92539.22;2057357;69;20624;-85
2023/12/31 00:39:39;;;;;;;9.35;4.20;;;;;;;0.48;66.49;92510.72;2054690;69;20671;-87
2023/12/31 00:42:05;;;;;;;8.88;3.95;;;;;;;0.37;66.55;92502.03;2058070;69;20163;-85
2023/12/31 00:44:35;;;;;;;10.57;4.72;;;;;;;0.51;67.20;92533.84;2060977;69;20149;-85
2023/12/31 00:47:02;;;;;;;11.13;4.70;;;;;;;0.56;66.69;92530.16;2061106;69;20149;-83
2023/12/31 00:49:34;;;;;;;9.63;4.22;;;;;;;0.46;67.36;92527.16;2061249;69;20168;-86
2023/12/31 00:52:09;;;;;;;7.90;4.38;;;;;;;0.38;66.23;92511.81;2057682;69;20150;-85
2023/12/31 00:54:36;;;;;;;9.80;4.00;;;;;;;0.53;66.92;92511.84;2054337;69;20247;-87
2023/12/31 00:57:12;;;;;;;7.07;3.38;;;;;;;0.51;67.02;92519.97;2061097;69;20272;-87
2023/12/31 00:59:39;;;;;;;8.57;4.20;;;;;;;0.43;67.56;92513.69;2058103;69;20203;-85
2023/12/31 01:02:11;;;;;;;11.02;4.07;;;;;;;0.41;67.38;92524.56;2061587;69;20169;-86
2023/12/31 01:04:43;;;;;;;8.70;4.13;;;;;;;0.35;66.66;92526.75;2061305;69;20236;-86
2023/12/31 01:07:13;;;;;;;8.00;4.15;;;;;;;0.29;66.97;92524.16;2061646;69;20528;-86
2023/12/31 01:09:42;;;;;;;9.77;4.20;;;;;;;0.27;67.18;92526.72;2061771;69;20149;-84
2023/12/31 01:12:09;;;;;;;9.07;4.47;;;;;;;-0.06;68.00;92501.50;2061807;69;20137;-83
2023/12/31 01:14:37;;;;;;;11.43;4.47;;;;;;;-0.01;68.47;92503.38;2061503;69;20141;-83
2023/12/31 01:17:04;;;;;;;8.82;4.13;;;;;;;0.12;68.10;92513.56;2061469;69;20153;-84
2023/12/31 01:19:33;;;;;;;12.48;3.90;;;;;;;0.13;68.20;92517.81;2058123;69;20227;-84
2023/12/31 01:22:10;;;;;;;10.60;4.40;;;;;;;0.23;67.68;92518.06;2061608;69;20169;-84
2023/12/31 01:24:40;;;;;;;7.65;3.35;;;;;;;0.29;67.61;92517.88;2061351;69;20161;-85
2023/12/31 01:27:10;;;;;;;6.95;3.25;;;;;;;0.34;67.86;92514.22;2061880;69;20520;-84
2023/12/31 01:29:41;;;;;;;6.40;3.40;;;;;;;0.39;67.19;92508.50;2061785;69;20169;-84
2023/12/31 01:32:08;;;;;;;6.13;2.97;;;;;;;0.39;66.94;92502.94;2061775;69;20182;-83
2023/12/31 01:34:38;;;;;;;10.85;4.60;;;;;;;-0.08;68.47;92508.88;2058359;69;20326;-82
2023/12/31 01:37:06;;;;;;;12.95;5.75;;;;;;;0.01;68.77;92513.91;2061473;69;20251;-84
2023/12/31 01:39:33;;;;;;;11.70;5.10;;;;;;;0.04;67.86;92507.25;2058247;69;20144;-84
2023/12/31 01:42:00;;;;;;;10.05;4.22;;;;;;;0.12;67.94;92505.25;2058360;69;20141;-86
2023/12/31 01:44:32;;;;;;;8.20;3.95;;;;;;;0.13;67.72;92508.78;2058247;69;20557;-85
2023/12/31 01:46:58;;;;;;;8.90;4.03;;;;;;;0.20;67.49;92505.31;2057634;69;20888;-84
2023/12/31 01:49:30;;;;;;;9.48;3.78;;;;;;;0.25;67.60;92504.38;2060073;69;20696;-81
2023/12/31 01:51:57;;;;;;;7.35;3.15;;;;;;;0.31;67.01;92493.13;2058222;69;20180;-78
2023/12/31 01:54:28;;;;;;;4.70;2.60;;;;;;;-0.07;68.72;92488.22;2061696;69;20179;-84
2023/12/31 01:56:58;;;;;;;5.32;2.72;;;;;;;0.16;68.10;92494.56;2061624;69;20161;-83
2023/12/31 01:59:26;;;;;;;9.57;3.28;;;;;;;-0.04;68.77;92493.41;2061700;69;20141;-84
2023/12/31 02:01:53;;;;;;;8.40;3.15;;;;;;;-0.02;68.43;92479.00;2061778;69;20497;-84
2023/12/31 02:04:31;;;;;;;5.55;2.78;;;;;;;0.07;68.54;92484.03;2060509;69;20145;-84
2023/12/31 02:07:04;;;;;;;6.15;2.55;;;;;;;0.09;67.92;92481.47;2061775;69;20157;-84
2023/12/31 02:09:33;;;;;;;;;;;;;;;0.20;67.39;92470.03;2055654;69;20288;-84
2023/12/31 02:12:03;;;;;;;3.97;2.13;;;;;;;0.30;66.48;92461.94;2061636;69;20053;-83
2023/12/31 02:14:30;;;;;;;4.05;2.30;;;;;;;0.56;65.43;92455.34;2061372;69;20146;-85
2023/12/31 02:16:58;;;;;;;4.65;2.42;;;;;;;0.16;66.86;92461.34;2061337;69;20156;-84
2023/12/31 02:19:25;;;;;;;5.18;2.28;;;;;;;0.35;66.69;92454.75;2060852;69;20163;-84
2023/12/31 02:21:51;;;;;;;5.53;2.67;;;;;;;0.30;66.02;92437.03;2057775;69;20256;-82
2023/12/31 02:24:20;;;;;;;4.20;2.50;;;;;;;0.43;66.06;92455.50;2059741;69;20145;-83
2023/12/31 02:26:47;;;;;;;6.35;1.77;;;;;;;0.43;67.01;92452.75;2061805;69;20145;-82
2023/12/31 02:29:14;;;;;;;1.70;1.10;;;;;;;0.50;66.29;92461.09;2057275;69;20537;-84
2023/12/31 02:31:40;;;;;;;5.28;2.55;;;;;;;-0.29;68.97;92456.38;2054534;69;20165;-81
2023/12/31 02:34:15;;;;;;;5.38;2.83;;;;;;;0.01;68.03;92457.81;2059321;69;20481;-84
2023/12/31 02:36:41;;;;;;;5.85;2.50;;;;;;;0.14;67.58;92436.25;2061659;69;20173;-84
2023/12/31 02:39:08;;;;;;;7.45;2.47;;;;;;;0.32;67.22;92430.94;2061383;69;20146;-83
2023/12/31 02:41:42;;;;;;;5.18;2.88;;;;;;;0.14;66.83;92419.66;2061634;69;20260;-86
2023/12/31 02:44:12;;;;;;;4.82;2.70;;;;;;;0.24;66.49;92439.97;2058101;69;20210;-84
2023/12/31 02:46:41;;;;;;;7.15;2.92;;;;;;;-0.06;67.74;92451.69;2061448;69;20141;-85
2023/12/31 02:49:08;;;;;;;4.55;2.42;;;;;;;-0.08;67.65;92437.66;2057692;69;20532;-82
2023/12/31 02:51:36;;;;;;;6.18;2.78;;;;;;;-0.09;67.36;92449.28;2057412;69;20173;-84
2023/12/31 02:54:02;;;;;;;6.55;2.70;;;;;;;0.09;67.46;92451.00;2058012;69;20585;-85
2023/12/31 02:56:30;;;;;;;5.43;2.60;;;;;;;0.17;66.76;92439.94;2056882;69;20152;-84
2023/12/31 02:58:56;;;;;;;6.43;3.13;;;;;;;-0.17;68.00;92446.50;2055178;69;20184;-84
2023/12/31 03:01:24;;;;;;;5.63;3.30;;;;;;;-0.15;68.15;92438.38;2057851;69;20222;-85
2023/12/31 03:03:50;;;;;;;6.70;3.30;;;;;;;-0.01;66.88;92436.94;2057611;69;20149;-84
2023/12/31 03:06:16;;;;;;;6.45;3.00;;;;;;;-0.45;69.04;92439.00;2057304;69;20632;-84
2023/12/31 03:08:58;;;;;;;5.90;2.80;;;;;;;-0.10;68.49;92443.00;2054734;69;20541;-84
2023/12/31 03:11:28;;;;;;;5.10;2.80;;;;;;;-0.09;68.08;92429.91;2057646;69;20759;-81
2023/12/31 03:13:57;;;;;;;4.65;2.67;;;;;;;-0.21;68.12;92426.00;2054363;69;20253;-85
2023/12/31 03:16:24;;;;;;;5.55;2.45;;;;;;;-0.16;67.81;92441.69;2057613;69;20176;-81
2023/12/31 03:18:55;;;;;;;5.82;3.33;;;;;;;-0.06;67.79;92426.03;2057778;69;20170;-83
2023/12/31 03:21:21;;;;;;;4.72;2.78;;;;;;;-0.08;67.98;92418.31;2057114;69;20611;-85
2023/12/31 03:23:50;;;;;;;4.78;2.42;;;;;;;0.01;67.95;92416.31;2057806;69;20271;-86
2023/12/31 03:26:17;;;;;;;4.82;2.83;;;;;;;-0.49;69.45;92412.97;2057761;69;20146;-86
2023/12/31 03:28:46;;;;;;;6.13;2.72;;;;;;;-0.19;68.21;92407.53;2057914;69;20173;-83
2023/12/31 03:31:16;;;;;;;6.30;3.03;;;;;;;-0.11;68.12;92410.34;2057662;69;20615;-84
2023/12/31 03:33:43;;;;;;;4.90;2.80;;;;;;;-0.13;67.86;92399.09;2057964;69;20593;-86
2023/12/31 03:36:09;;;;;;;5.07;2.65;;;;;;;-0.08;67.87;92398.19;2057431;69;20189;-85
2023/12/31 03:38:36;;;;;;;6.28;2.88;;;;;;;-0.40;68.58;92402.13;2057204;69;20161;-85
2023/12/31 03:41:11;;;;;;;7.10;3.10;;;;;;;-0.35;69.77;92406.75;2057890;69;21336;-83
2023/12/31 03:43:37;;;;;;;9.05;3.35;;;;;;;-0.19;68.17;92395.75;2057500;69;20157;-85
2023/12/31 03:46:05;;;;;;;6.97;2.50;;;;;;;-0.18;68.03;92386.16;2057889;69;20220;-84
2023/12/31 03:48:31;;;;;;;6.90;2.60;;;;;;;-0.17;67.97;92387.66;2058136;69;20165;-84
2023/12/31 03:50:56;;;;;;;5.97;2.55;;;;;;;-0.27;68.98;92388.19;2058971;69;20265;-78
2023/12/31 03:53:22;;;;;;;4.63;2.60;;;;;;;-0.36;68.58;92379.66;2061228;69;20492;-80
2023/12/31 03:55:48;;;;;;;6.80;2.53;;;;;;;-0.18;68.25;92380.63;2058276;69;20148;-83
2023/12/31 03:58:14;;;;;;;4.95;2.83;;;;;;;-0.30;68.57;92383.72;2054919;69;20136;-82
2023/12/31 04:00:40;;;;;;;10.38;2.67;;;;;;;-0.22;68.91;92377.50;2059617;69;20177;-84
2023/12/31 04:03:05;;;;;;;5.15;2.88;;;;;;;-0.39;68.86;92369.69;2058002;69;20228;-81
2023/12/31 04:05:32;;;;;;;5.18;2.40;;;;;;;-0.37;69.16;92375.41;2057597;69;20148;-85
2023/12/31 04:07:59;;;;;;;4.88;2.45;;;;;;;-0.22;68.57;92374.72;2057638;69;20228;-84
2023/12/31 04:10:25;;;;;;;4.20;2.50;;;;;;;-0.24;68.60;92380.78;2059326;69;20157;-84
2023/12/31 04:12:50;;;;;;;4.50;2.92;;;;;;;-0.16;68.51;92375.28;2061303;69;20239;-83
2023/12/31 04:15:16;;;;;;;4.53;2.38;;;;;;;-0.19;68.41;92370.84;2058048;69;20157;-82
2023/12/31 04:17:43;;;;;;;4.07;2.30;;;;;;;-0.16;68.78;92375.28;2057880;69;20146;-84
2023/12/31 04:20:13;;;;;;;3.90;2.58;;;;;;;-0.53;70.25;92374.63;2058727;69;20149;-85
2023/12/31 04:22:42;;;;;;;6.55;2.92;;;;;;;-0.30;68.81;92367.13;2061290;69;20156;-85
2023/12/31 04:25:08;;;;;;;5.30;2.85;;;;;;;-0.31;68.64;92359.38;2057670;69;20524;-84
2023/12/31 04:27:38;;;;;;;5.00;2.22;;;;;;;-0.46;69.88;92353.78;2060665;69;20609;-83
2023/12/31 04:30:05;;;;;;;3.63;2.05;;;;;;;-0.35;69.45;92345.91;2060532;69;20144;-84
2023/12/31 04:32:31;;;;;;;5.57;2.20;;;;;;;-0.34;68.84;92355.69;2061304;69;20283;-85
2023/12/31 04:34:56;;;;;;;3.13;2.00;;;;;;;-0.27;68.60;92341.16;2058048;69;20605;-84
2023/12/31 04:37:22;;;;;;;4.43;2.03;;;;;;;-0.03;67.95;92350.97;2061574;69;20161;-85
2023/12/31 04:39:48;;;;;;;3.35;1.90;;;;;;;0.04;67.86;92335.66;2061730;69;20645;-86
2023/12/31 04:42:18;;;;;;;4.65;2.40;;;;;;;-0.07;68.31;92336.00;2058021;69;20597;-85
2023/12/31 04:44:46;;;;;;;4.15;2.35;;;;;;;-0.19;67.85;92341.16;2055372;69;20153;-84
2023/12/31 04:47:20;;;;;;;3.85;2.20;;;;;;;-0.04;68.29;92329.38;2061594;69;20247;-85
2023/12/31 04:49:47;;;;;;;3.10;2.10;;;;;;;-0.18;67.84;92331.59;2058143;69;20153;-85
2023/12/31 04:52:20;;;;;;;5.60;2.60;;;;;;;-0.19;68.21;92340.41;2060154;69;20160;-84
2023/12/31 04:54:51;;;;;;;6.53;2.30;;;;;;;-0.06;67.65;92313.31;2058415;69;20153;-83
2023/12/31 04:57:18;;;;;;;3.00;1.95;;;;;;;0.03;67.75;92309.28;2058557;69;20153;-85
2023/12/31 04:59:44;;;;;;;4.15;1.88;;;;;;;-0.10;68.38;92318.47;2058297;69;20604;-83
2023/12/31 05:02:13;;;;;;;6.60;2.75;;;;;;;-0.14;67.79;92295.97;2057994;69;20245;-84
2023/12/31 05:04:41;;;;;;;4.30;2.28;;;;;;;-0.19;68.48;92287.84;2057873;69;20169;-84
2023/12/31 05:07:11;;;;;;;6.18;3.90;;;;;;;-0.12;68.54;92285.09;2058418;69;20146;-80
2023/12/31 05:09:37;;;;;;;6.95;3.22;;;;;;;-0.05;67.83;92289.16;2058621;69;20150;-85
2023/12/31 05:12:03;;;;;;;85.43;34.35;;;;;;;0.11;67.70;92285.13;2058294;69;20684;-84
2023/12/31 05:14:28;;;;;;;18.23;9.73;;;;;;;0.11;67.58;92274.03;2058651;69;20296;-84
2023/12/31 05:16:54;;;;;;;57.60;24.35;;;;;;;0.10;67.20;92272.56;2058425;69;20593;-83
2023/12/31 05:19:20;;;;;;;23.23;10.40;;;;;;;0.18;66.94;92272.56;2058354;69;20665;-81
2023/12/31 05:21:45;;;;;;;10.70;5.50;;;;;;;0.08;68.59;92269.59;2058440;69;20134;-79
2023/12/31 05:24:11;;;;;;;6.38;3.33;;;;;;;0.27;67.44;92266.47;2058365;69;20244;-84
2023/12/31 05:26:37;;;;;;;17.65;8.95;;;;;;;0.02;68.24;92273.84;2058441;69;20252;-84
2023/12/31 05:29:06;;;;;;;12.18;6.80;;;;;;;-0.12;68.87;92267.75;2058320;69;20573;-85
2023/12/31 05:31:32;;;;;;;12.00;6.22;;;;;;;0.13;67.71;92268.69;2058377;69;20235;-84
2023/12/31 05:33:57;;;;;;;10.07;5.05;;;;;;;0.18;67.11;92264.25;2058204;69;20597;-83
2023/12/31 05:36:23;;;;;;;7.43;4.20;;;;;;;0.11;67.62;92260.19;2058405;69;20134;-82
2023/12/31 05:38:49;;;;;;;8.25;4.07;;;;;;;0.16;67.31;92256.50;2058483;69;20150;-80
2023/12/31 05:41:14;;;;;;;7.30;3.63;;;;;;;0.07;67.45;92250.78;2058525;69;20673;-82
2023/12/31 05:43:40;;;;;;;7.57;3.85;;;;;;;0.15;66.95;92255.03;2060634;69;20203;-83
2023/12/31 05:46:06;;;;;;;7.15;3.42;;;;;;;0.16;67.34;92241.94;2058585;69;20184;-82
2023/12/31 05:48:31;;;;;;;4.85;3.15;;;;;;;0.23;66.75;92252.28;2055105;69;20142;-83
2023/12/31 05:50:58;;;;;;;5.88;2.53;;;;;;;0.23;67.03;92253.00;2059206;69;20161;-82
2023/12/31 05:53:23;;;;;;;5.53;3.03;;;;;;;-0.33;68.83;92262.38;2061867;69;20236;-83
2023/12/31 05:55:50;;;;;;;6.03;3.55;;;;;;;-0.14;68.82;92253.72;2061875;69;20150;-82
2023/12/31 05:58:18;;;;;;;5.72;2.78;;;;;;;0.06;67.86;92247.28;2058640;69;20149;-83
2023/12/31 06:00:43;;;;;;;7.00;3.25;;;;;;;0.03;67.87;92242.13;2061843;69;20177;-81
2023/12/31 06:03:09;;;;;;;5.65;3.30;;;;;;;-0.18;68.72;92231.97;2061241;69;20639;-81
2023/12/31 06:05:35;;;;;;;7.60;4.10;;;;;;;-0.16;68.84;92236.94;2058325;69;20160;-79
2023/12/31 06:08:00;;;;;;;6.00;3.55;;;;;;;-0.19;68.83;92241.53;2061769;69;20177;-80
2023/12/31 06:10:26;;;;;;;5.05;3.00;;;;;;;-0.12;68.75;92226.25;2061637;69;20584;-83
2023/12/31 06:12:52;;;;;;;7.65;3.13;;;;;;;-0.44;69.37;92224.75;2061656;69;20219;-82
2023/12/31 06:15:18;;;;;;;6.03;3.85;;;;;;;-0.26;69.16;92220.16;2061814;69;20676;-81
2023/12/31 06:17:43;;;;;;;8.25;4.60;;;;;;;-0.18;69.42;92233.97;2061469;69;20161;-81
2023/12/31 06:20:09;;;;;;;8.05;4.35;;;;;;;-0.08;68.61;92235.66;2061481;69;20219;-82
2023/12/31 06:22:36;;;;;;;4.72;2.72;;;;;;;-0.05;69.03;92226.25;2061659;69;20145;-82
2023/12/31 06:25:02;;;;;;;5.47;2.17;;;;;;;0.11;68.82;92226.25;2061306;69;20161;-82
2023/12/31 06:27:30;;;;;;;6.82;3.70;;;;;;;-0.08;68.38;92218.31;2061494;69;20241;-82
2023/12/31 06:29:56;;;;;;;22.55;10.27;;;;;;;-0.27;69.53;92221.47;2061069;69;20922;-84
2023/12/31 06:32:21;;;;;;;11.98;5.15;;;;;;;-0.19;69.68;92213.16;2057842;69;20207;-84
2023/12/31 06:34:47;;;;;;;6.70;3.60;;;;;;;-0.04;68.96;92215.94;2056120;69;20220;-86
2023/12/31 06:37:14;;;;;;;8.82;4.55;;;;;;;-0.04;69.15;92216.66;2060113;69;20153;-84
2023/12/31 06:39:44;;;;;;;6.88;3.83;;;;;;;0.00;68.65;92221.84;2059470;69;20205;-85
2023/12/31 06:42:10;;;;;;;9.95;5.47;;;;;;;0.04;68.31;92232.50;2059731;69;20145;-85
2023/12/31 06:44:35;;;;;;;13.68;6.28;;;;;;;-0.07;68.81;92214.25;2056842;69;20589;-84
2023/12/31 06:47:02;;;;;;;7.50;4.30;;;;;;;-0.36;69.06;92225.50;2056190;69;20621;-83
2023/12/31 06:49:27;;;;;;;10.77;4.70;;;;;;;-0.30;69.09;92236.38;2057013;69;20559;-87
2023/12/31 06:51:53;;;;;;;7.78;4.25;;;;;;;-0.12;69.01;92224.22;2059830;69;20609;-86
2023/12/31 06:54:19;;;;;;;16.98;7.85;;;;;;;0.01;68.53;92219.81;2056371;69;20154;-87
2023/12/31 06:56:48;;;;;;;15.90;7.13;;;;;;;0.08;68.61;92217.00;2059687;69;20240;-85
2023/12/31 06:59:14;;;;;;;16.50;8.50;;;;;;;0.04;68.84;92216.66;2059338;69;20607;-88
2023/12/31 07:01:40;;;;;;;12.98;7.40;;;;;;;0.15;68.45;92213.50;2060668;69;20240;-88
2023/12/31 07:04:06;;;;;;;27.15;12.20;;;;;;;-0.06;69.22;92210.19;2058818;69;20152;-88
2023/12/31 07:06:31;;;;;;;26.63;12.90;;;;;;;0.21;68.16;92219.59;2062086;69;20141;-84
2023/12/31 07:08:57;;;;;;;45.47;17.65;;;;;;;0.18;69.00;92222.72;2062018;69;20236;-85
2023/12/31 07:11:23;;;;;;;23.05;11.40;;;;;;;0.31;70.19;92213.47;2062545;69;20149;-88
2023/12/31 07:13:49;;;;;;;35.85;16.42;;;;;;;0.02;70.23;92215.75;2063314;69;20161;-88
2023/12/31 07:16:14;;;;;;;29.00;12.60;;;;;;;0.22;70.48;92228.63;2062933;69;20137;-79
2023/12/31 07:18:41;;;;;;;25.38;11.82;;;;;;;0.28;69.57;92226.44;2062037;69;20211;-84
2023/12/31 07:21:07;;;;;;;21.10;8.98;;;;;;;0.31;68.51;92210.72;2061743;69;20607;-78
2023/12/31 07:23:33;;;;;;;27.63;12.82;;;;;;;-0.04;70.23;92216.66;2062022;69;20583;-81
2023/12/31 07:25:59;;;;;;;31.08;12.25;;;;;;;0.17;69.45;92224.75;2062104;69;20635;-85
2023/12/31 07:28:24;;;;;;;23.63;9.25;;;;;;;0.22;69.31;92214.78;2062468;69;20149;-83
2023/12/31 07:30:50;;;;;;;19.50;8.63;;;;;;;0.35;68.94;92211.81;2062292;69;20797;-87
2023/12/31 07:33:15;;;;;;;20.52;8.88;;;;;;;0.34;68.58;92212.38;2062023;69;20153;-82
2023/12/31 07:35:41;;;;;;;15.00;7.50;;;;;;;0.04;69.45;92224.22;2059016;69;20137;-81
2023/12/31 07:38:08;;;;;;;18.30;7.10;;;;;;;0.27;69.03;92219.38;2061961;69;20232;-83
2023/12/31 07:40:34;;;;;;;48.20;22.17;;;;;;;-0.12;70.38;92226.25;2063032;69;20146;-79
2023/12/31 07:43:00;;;;;;;45.10;20.70;;;;;;;-0.03;70.45;92217.41;2064274;69;20145;-79
2023/12/31 07:45:26;;;;;;;50.75;23.85;;;;;;;0.29;69.68;92222.34;2064340;69;20227;-80
2023/12/31 07:47:53;;;;;;;60.38;26.38;;;;;;;-0.11;70.28;92194.53;2062525;69;20156;-79
2023/12/31 07:50:22;;;;;;;46.13;22.17;;;;;;;0.27;69.70;92219.38;2063308;69;20146;-78
2023/12/31 07:52:49;;;;;;;41.25;19.88;;;;;;;0.37;68.93;92227.91;2063530;69;20160;-81
2023/12/31 07:55:15;;;;;;;40.45;19.30;;;;;;;0.41;69.05;92209.59;2063060;69;20596;-80
2023/12/31 07:57:41;;;;;;;32.38;16.00;;;;;;;0.52;68.95;92211.22;2062132;69;20240;-79
2023/12/31 08:00:07;;;;;;;47.67;20.10;;;;;;;0.49;69.21;92220.66;2062199;69;20604;-79
2023/12/31 08:02:38;;;;;;;37.42;20.23;;;;;;;0.29;69.59;92221.63;2063204;69;20133;-82
2023/12/31 08:05:04;;;;;;;41.53;21.48;;;;;;;0.63;69.18;92212.84;2064133;69;20486;-81
2023/12/31 08:07:30;;;;;;;43.58;22.38;;;;;;;0.78;68.64;92226.69;2065658;69;20149;-79
2023/12/31 08:09:55;;;;;;;52.17;24.42;;;;;;;0.89;68.68;92231.81;2066783;69;20138;-80
2023/12/31 08:12:23;;;;;;;51.35;24.27;;;;;;;0.96;68.57;92233.81;2063648;69;20177;-81
2023/12/31 08:14:49;;;;;;;32.40;17.30;;;;;;;1.02;68.61;92231.56;2064514;69;20145;-83
2023/12/31 08:17:15;;;;;;;38.10;18.55;;;;;;;1.09;68.23;92234.88;2062852;69;20207;-82
2023/12/31 08:19:42;;;;;;;34.63;18.67;;;;;;;0.94;68.96;92216.28;2062917;69;20235;-82
2023/12/31 08:22:09;;;;;;;31.40;17.08;;;;;;;1.03;68.42;92215.69;2062281;69;20231;-85
2023/12/31 08:24:34;;;;;;;42.00;21.55;;;;;;;0.97;68.68;92213.13;2062038;69;20224;-81
2023/12/31 08:27:00;;;;;;;40.58;21.73;;;;;;;1.24;68.65;92215.41;2062045;69;20152;-82
2023/12/31 08:29:27;;;;;;;42.65;20.92;;;;;;;1.37;68.16;92212.38;2062058;69;20599;-83
2023/12/31 08:31:55;;;;;;;36.15;19.48;;;;;;;1.50;68.18;92203.78;2062113;69;20569;-85
2023/12/31 08:34:21;;;;;;;49.83;23.92;;;;;;;0.86;69.48;92210.75;2061961;69;20165;-81
2023/12/31 08:36:47;;;;;;;39.88;20.50;;;;;;;1.12;69.70;92206.03;2062113;69;20137;-85
2023/12/31 08:39:12;;;;;;;39.22;19.42;;;;;;;1.49;68.15;92205.09;2062171;69;20233;-84
2023/12/31 08:41:38;;;;;;;34.00;18.00;;;;;;;1.80;67.97;92218.03;2062143;69;20144;-83
2023/12/31 08:44:04;;;;;;;31.77;16.85;;;;;;;1.97;67.66;92204.19;2058987;69;20233;-84
2023/12/31 08:46:30;;;;;;;41.58;19.33;;;;;;;1.66;68.14;92226.63;2062434;69;20180;-86
2023/12/31 08:48:56;;;;;;;35.65;18.58;;;;;;;2.07;67.06;92221.72;2062350;69;20294;-86
2023/12/31 08:51:22;;;;;;;36.17;18.45;;;;;;;2.42;66.95;92233.63;2058784;69;20696;-85
2023/12/31 08:53:47;;;;;;;35.85;18.48;;;;;;;2.64;66.43;92225.66;2058923;69;20227;-86
2023/12/31 08:56:13;;;;;;;29.98;15.85;;;;;;;2.73;65.51;92211.84;2059201;69;20153;-88
2023/12/31 08:58:38;;;;;;;32.78;16.35;;;;;;;2.83;65.25;92203.56;2058973;69;20141;-87
2023/12/31 09:01:04;;;;;;;27.98;14.88;;;;;;;2.73;65.70;92197.22;2058709;69;20149;-87
2023/12/31 09:03:30;;;;;;;26.20;13.55;;;;;;;3.17;65.22;92183.34;2058561;69;20150;-86
2023/12/31 09:05:56;;;;;;;22.52;10.85;;;;;;;2.99;63.80;92185.41;2058769;69;20146;-83
2023/12/31 09:08:22;;;;;;;28.48;13.85;;;;;;;3.13;65.78;92180.25;2058166;69;20180;-82
2023/12/31 09:10:48;;;;;;;30.23;15.02;;;;;;;3.55;65.42;92179.31;2058676;69;20554;-80
2023/12/31 09:13:13;;;;;;;35.05;15.77;;;;;;;3.77;64.61;92183.09;2058758;69;20180;-80
2023/12/31 09:15:42;;;;;;;27.45;14.65;;;;;;;3.91;64.36;92184.19;2058749;69;20359;-80
2023/12/31 09:18:09;;;;;;;27.88;15.35;;;;;;;4.18;63.63;92191.75;2058541;69;20168;-81
2023/12/31 09:20:35;;;;;;;25.15;13.73;;;;;;;4.38;63.46;92184.16;2058761;69;20588;-79
2023/12/31 09:23:01;;;;;;;22.42;11.55;;;;;;;4.65;61.60;92195.22;2058079;69;20157;-83
2023/12/31 09:25:27;;;;;;;7.60;4.53;;;;;;;4.84;58.32;92192.44;2058704;69;20149;-82
2023/12/31 09:27:53;;;;;;;7.10;4.22;;;;;;;4.84;56.30;92175.72;2058665;69;20152;-80
2023/12/31 09:30:19;;;;;;;29.15;14.98;;;;;;;4.31;60.98;92177.41;2058613;69;20257;-85
2023/12/31 09:32:44;;;;;;;30.05;13.45;;;;;;;5.20;63.95;92188.78;2058640;69;20130;-81
2023/12/31 09:35:10;;;;;;;27.25;14.43;;;;;;;4.94;60.08;92189.66;2057969;69;20581;-80
2023/12/31 09:37:36;;;;;;;29.42;14.40;;;;;;;4.75;60.22;92193.91;2058591;69;20173;-81
2023/12/31 09:40:03;;;;;;;25.92;14.63;;;;;;;5.07;60.42;92178.81;2058771;69;20169;-81
2023/12/31 09:42:38;;;;;;;25.38;13.52;;;;;;;5.43;60.11;92179.94;2058653;69;20142;-81
2023/12/31 09:45:08;;;;;;;23.75;14.48;;;;;;;5.21;59.81;92165.13;2058748;69;20150;-80
2023/12/31 09:47:34;;;;;;;25.33;14.18;;;;;;;5.48;59.68;92172.59;2058606;69;20223;-84
2023/12/31 09:50:01;;;;;;;25.73;14.43;;;;;;;5.62;59.98;92162.41;2058497;69;20148;-81
2023/12/31 09:52:29;;;;;;;29.40;14.65;;;;;;;5.76;60.11;92157.09;2057929;69;20240;-81
2023/12/31 09:54:57;;;;;;;23.25;12.98;;;;;;;5.49;59.19;92154.50;2058587;69;20134;-79
2023/12/31 09:57:25;;;;;;;25.33;12.68;;;;;;;5.96;58.39;92152.94;2057952;69;20149;-79
2023/12/31 09:59:54;;;;;;;26.90;14.18;;;;;;;6.18;58.61;92148.09;2058526;69;20177;-79
2023/12/31 10:02:23;;;;;;;23.50;11.57;;;;;;;6.21;58.02;92154.56;2058741;69;20200;-81
2023/12/31 10:04:51;;;;;;;20.33;10.68;;;;;;;6.35;58.95;92161.13;2058395;69;20138;-81
2023/12/31 10:07:17;;;;;;;19.23;10.95;;;;;;;6.27;59.42;92161.31;2058557;69;20554;-87
2023/12/31 10:09:43;;;;;;;19.45;9.55;;;;;;;6.31;58.89;92149.66;2057811;69;20645;-79
2023/12/31 10:12:08;;;;;;;18.58;10.35;;;;;;;6.33;57.67;92141.44;2053892;69;21778;-80
2023/12/31 10:14:34;;;;;;;17.98;10.23;;;;;;;6.14;57.74;92149.91;2058446;69;20161;-86
2023/12/31 10:17:00;;;;;;;16.10;9.95;;;;;;;6.61;57.56;92137.00;2058075;69;20138;-80
2023/12/31 10:19:25;;;;;;;18.00;9.90;;;;;;;6.68;57.75;92140.91;2058236;69;20194;-81
2023/12/31 10:21:51;;;;;;;21.60;10.10;;;;;;;6.35;56.49;92130.38;2060324;69;20181;-86
2023/12/31 10:24:29;;;;;;;14.18;8.65;;;;;;;6.59;55.28;92120.78;2058215;69;20544;-85
2023/12/31 10:26:56;;;;;;;17.88;9.68;;;;;;;6.80;55.08;92108.88;2058050;69;20152;-85
2023/12/31 10:29:22;;;;;;;18.10;10.68;;;;;;;6.97;55.19;92099.47;2057837;69;20560;-86
2023/12/31 10:31:48;;;;;;;25.55;11.48;;;;;;;7.18;54.47;92095.88;2058622;69;20137;-89
2023/12/31 10:34:17;;;;;;;22.15;12.13;;;;;;;7.30;55.42;92079.84;2057153;69;20138;-87
2023/12/31 10:36:47;;;;;;;26.40;16.33;;;;;;;7.64;55.12;92072.84;2058353;69;20220;-86
2023/12/31 10:39:36;;;;;;;21.55;11.15;;;;;;;7.65;53.40;92067.97;2058099;69;20166;-89
2023/12/31 10:42:06;;;;;;;21.15;11.07;;;;;;;7.96;53.83;92064.94;2057100;69;20274;-89
2023/12/31 10:44:35;;;;;;;19.45;10.65;;;;;;;8.37;53.17;92054.06;2057952;69;20601;-89
2023/12/31 10:47:05;;;;;;;18.55;10.75;;;;;;;8.49;52.79;92070.16;2057851;69;20498;-88
2023/12/31 10:49:32;;;;;;;22.08;11.10;;;;;;;8.71;52.50;92063.03;2058650;69;20471;-80
2023/12/31 10:52:01;;;;;;;14.68;8.45;;;;;;;9.01;51.71;92054.84;2060644;69;20149;-82
2023/12/31 10:54:45;;;;;;;13.18;6.78;;;;;;;9.06;50.26;92048.84;2060785;69;20188;-83
2023/12/31 10:57:11;;;;;;;13.90;6.28;;;;;;;9.15;48.58;92047.94;2064223;69;20249;-87
2023/12/31 10:59:41;;;;;;;16.85;6.90;;;;;;;9.19;48.66;92036.22;2061632;69;20606;-84
2023/12/31 11:02:20;;;;;;;21.67;12.35;;;;;;;8.68;49.38;92027.03;2060957;69;20512;-85
2023/12/31 11:04:47;;;;;;;30.65;18.05;;;;;;;8.58;49.78;92025.13;2061678;69;20236;-82
2023/12/31 11:07:20;;;;;;;27.23;15.88;;;;;;;8.69;50.80;92015.19;2061185;69;20149;-81
2023/12/31 11:09:47;;;;;;;21.10;13.32;;;;;;;8.46;50.66;92018.06;2061830;69;20245;-87
2023/12/31 11:12:15;;;;;;;18.38;11.10;;;;;;;8.46;50.51;92004.06;2055004;69;20684;-80
2023/12/31 11:14:46;;;;;;;20.92;13.57;;;;;;;7.99;51.48;91992.91;2061748;69;20153;-80
2023/12/31 11:17:38;;;;;;;18.42;10.15;;;;;;;7.96;51.95;91996.94;2063255;69;20152;-79
2023/12/31 11:20:30;;;;;;;24.48;12.55;;;;;;;8.61;52.32;91989.47;2060781;69;20197;-83
2023/12/31 11:23:15;;;;;;;18.75;10.07;;;;;;;8.73;51.66;91989.44;2060938;69;20208;-81
2023/12/31 11:25:44;;;;;;;22.90;10.75;;;;;;;8.74;50.64;91988.09;2062896;69;20622;-83
2023/12/31 11:28:10;;;;;;;17.40;9.63;;;;;;;8.65;49.96;91973.59;2062093;69;20153;-80
2023/12/31 11:30:51;;;;;;;18.67;11.00;;;;;;;8.26;50.29;91984.69;2061463;69;20152;-80
2023/12/31 11:33:21;;;;;;;16.05;9.77;;;;;;;8.35;51.55;91978.22;2064672;69;20145;-79